sensor_id;sensor_type;location;lat;lon;timestamp;P1;durP1;ratioP1;P2;durP2;ratioP2
65971;SDS011;52726;48.852;9.152;2024-02-26T00:00:10;1.60;;;1.35;;
65971;SDS011;52726;48.852;9.152;2024-02-26T00:02:37;0.85;;;0.85;;
65971;SDS011;52726;48.852;9.152;2024-02-26T00:05:06;1.15;;;1.08;;
65971;SDS011;52726;48.852;9.152;2024-02-26T00:07:32;2.55;;;1.23;;
65971;SDS011;52726;48.852;9.152;2024-02-26T00:09:57;1.95;;;1.33;;
65971;SDS011;52726;48.852;9.152;2024-02-26T00:12:22;2.47;;;1.40;;
65971;SDS011;52726;48.852;9.152;2024-02-26T00:14:48;1.38;;;1.23;;
65971;SDS011;52726;48.852;9.152;2024-02-26T00:17:14;2.70;;;1.23;;
65971;SDS011;52726;48.852;9.152;2024-02-26T00:19:40;1.95;;;1.42;;
65971;SDS011;52726;48.852;9.152;2024-02-26T00:22:05;2.80;;;1.25;;
65971;SDS011;52726;48.852;9.152;2024-02-26T00:24:30;1.83;;;1.58;;
65971;SDS011;52726;48.852;9.152;2024-02-26T00:26:56;1.15;;;1.15;;
65971;SDS011;52726;48.852;9.152;2024-02-26T00:29:21;1.20;;;1.10;;
65971;SDS011;52726;48.852;9.152;2024-02-26T00:31:47;0.93;;;0.93;;
65971;SDS011;52726;48.852;9.152;2024-02-26T00:34:12;4.00;;;1.10;;
65971;SDS011;52726;48.852;9.152;2024-02-26T00:36:38;1.10;;;1.08;;
65971;SDS011;52726;48.852;9.152;2024-02-26T00:39:03;1.73;;;1.20;;
65971;SDS011;52726;48.852;9.152;2024-02-26T00:41:29;0.85;;;0.85;;
65971;SDS011;52726;48.852;9.152;2024-02-26T00:43:54;1.20;;;0.93;;
65971;SDS011;52726;48.852;9.152;2024-02-26T00:46:19;2.10;;;1.33;;
65971;SDS011;52726;48.852;9.152;2024-02-26T00:48:45;3.00;;;1.52;;
65971;SDS011;52726;48.852;9.152;2024-02-26T00:51:10;1.25;;;1.13;;
65971;SDS011;52726;48.852;9.152;2024-02-26T00:53:35;1.10;;;1.00;;
65971;SDS011;52726;48.852;9.152;2024-02-26T00:56:01;1.40;;;1.13;;
65971;SDS011;52726;48.852;9.152;2024-02-26T00:58:26;2.75;;;1.30;;
65971;SDS011;52726;48.852;9.152;2024-02-26T01:00:52;1.60;;;1.25;;
65971;SDS011;52726;48.852;9.152;2024-02-26T01:03:17;2.00;;;1.58;;
65971;SDS011;52726;48.852;9.152;2024-02-26T01:05:43;3.30;;;1.52;;
65971;SDS011;52726;48.852;9.152;2024-02-26T01:08:09;3.33;;;1.17;;
65971;SDS011;52726;48.852;9.152;2024-02-26T01:10:34;2.13;;;1.30;;
65971;SDS011;52726;48.852;9.152;2024-02-26T01:13:00;1.30;;;1.20;;
65971;SDS011;52726;48.852;9.152;2024-02-26T01:15:25;2.42;;;1.70;;
65971;SDS011;52726;48.852;9.152;2024-02-26T01:17:51;2.55;;;1.33;;
65971;SDS011;52726;48.852;9.152;2024-02-26T01:20:17;2.15;;;1.63;;
65971;SDS011;52726;48.852;9.152;2024-02-26T01:22:43;1.35;;;1.25;;
65971;SDS011;52726;48.852;9.152;2024-02-26T01:25:09;1.23;;;1.13;;
65971;SDS011;52726;48.852;9.152;2024-02-26T01:27:35;1.50;;;1.40;;
65971;SDS011;52726;48.852;9.152;2024-02-26T01:30:02;1.20;;;1.10;;
65971;SDS011;52726;48.852;9.152;2024-02-26T01:32:28;1.17;;;1.10;;
65971;SDS011;52726;48.852;9.152;2024-02-26T01:34:54;2.00;;;1.00;;
65971;SDS011;52726;48.852;9.152;2024-02-26T01:37:19;1.63;;;1.50;;
65971;SDS011;52726;48.852;9.152;2024-02-26T01:39:45;1.35;;;1.02;;
65971;SDS011;52726;48.852;9.152;2024-02-26T01:42:10;0.98;;;0.95;;
65971;SDS011;52726;48.852;9.152;2024-02-26T01:44:36;1.85;;;1.20;;
65971;SDS011;52726;48.852;9.152;2024-02-26T01:47:03;2.92;;;1.33;;
65971;SDS011;52726;48.852;9.152;2024-02-26T01:49:29;2.20;;;1.45;;
65971;SDS011;52726;48.852;9.152;2024-02-26T01:51:55;1.27;;;1.27;;
65971;SDS011;52726;48.852;9.152;2024-02-26T01:54:21;1.35;;;1.15;;
65971;SDS011;52726;48.852;9.152;2024-02-26T01:56:46;1.15;;;1.10;;
65971;SDS011;52726;48.852;9.152;2024-02-26T01:59:12;2.17;;;1.33;;
65971;SDS011;52726;48.852;9.152;2024-02-26T02:01:38;1.20;;;0.98;;
65971;SDS011;52726;48.852;9.152;2024-02-26T02:04:08;1.70;;;1.35;;
65971;SDS011;52726;48.852;9.152;2024-02-26T02:06:34;1.20;;;1.10;;
65971;SDS011;52726;48.852;9.152;2024-02-26T02:09:01;1.05;;;0.90;;
65971;SDS011;52726;48.852;9.152;2024-02-26T02:11:31;3.22;;;1.25;;
65971;SDS011;52726;48.852;9.152;2024-02-26T02:13:57;1.60;;;1.02;;
65971;SDS011;52726;48.852;9.152;2024-02-26T02:16:23;1.63;;;1.50;;
65971;SDS011;52726;48.852;9.152;2024-02-26T02:18:48;1.60;;;1.23;;
65971;SDS011;52726;48.852;9.152;2024-02-26T02:21:13;2.38;;;1.40;;
65971;SDS011;52726;48.852;9.152;2024-02-26T02:23:39;1.17;;;1.13;;
65971;SDS011;52726;48.852;9.152;2024-02-26T02:26:04;2.20;;;1.33;;
65971;SDS011;52726;48.852;9.152;2024-02-26T02:28:29;1.05;;;1.05;;
65971;SDS011;52726;48.852;9.152;2024-02-26T02:30:55;2.22;;;1.60;;
65971;SDS011;52726;48.852;9.152;2024-02-26T02:33:21;1.52;;;1.13;;
65971;SDS011;52726;48.852;9.152;2024-02-26T02:35:48;2.15;;;1.13;;
65971;SDS011;52726;48.852;9.152;2024-02-26T02:38:15;0.98;;;0.93;;
65971;SDS011;52726;48.852;9.152;2024-02-26T02:40:41;0.98;;;0.90;;
65971;SDS011;52726;48.852;9.152;2024-02-26T02:43:06;4.20;;;1.45;;
65971;SDS011;52726;48.852;9.152;2024-02-26T02:45:31;1.38;;;1.20;;
65971;SDS011;52726;48.852;9.152;2024-02-26T02:47:57;1.20;;;0.90;;
65971;SDS011;52726;48.852;9.152;2024-02-26T02:50:22;3.17;;;1.27;;
65971;SDS011;52726;48.852;9.152;2024-02-26T02:52:47;1.40;;;1.02;;
65971;SDS011;52726;48.852;9.152;2024-02-26T02:55:15;1.58;;;0.93;;
65971;SDS011;52726;48.852;9.152;2024-02-26T02:57:40;1.70;;;0.73;;
65971;SDS011;52726;48.852;9.152;2024-02-26T03:00:08;1.58;;;1.42;;
65971;SDS011;52726;48.852;9.152;2024-02-26T03:02:34;1.33;;;0.90;;
65971;SDS011;52726;48.852;9.152;2024-02-26T03:05:01;2.08;;;1.30;;
65971;SDS011;52726;48.852;9.152;2024-02-26T03:07:27;1.67;;;1.20;;
65971;SDS011;52726;48.852;9.152;2024-02-26T03:09:52;1.83;;;1.30;;
65971;SDS011;52726;48.852;9.152;2024-02-26T03:12:18;1.20;;;1.20;;
65971;SDS011;52726;48.852;9.152;2024-02-26T03:14:43;3.42;;;1.23;;
65971;SDS011;52726;48.852;9.152;2024-02-26T03:17:08;1.25;;;1.20;;
65971;SDS011;52726;48.852;9.152;2024-02-26T03:19:34;2.03;;;1.40;;
65971;SDS011;52726;48.852;9.152;2024-02-26T03:21:59;2.38;;;1.38;;
65971;SDS011;52726;48.852;9.152;2024-02-26T03:24:24;1.48;;;1.38;;
65971;SDS011;52726;48.852;9.152;2024-02-26T03:26:50;1.40;;;1.05;;
65971;SDS011;52726;48.852;9.152;2024-02-26T03:29:17;1.05;;;0.90;;
65971;SDS011;52726;48.852;9.152;2024-02-26T03:31:42;2.75;;;1.38;;
65971;SDS011;52726;48.852;9.152;2024-02-26T03:34:07;2.35;;;1.40;;
65971;SDS011;52726;48.852;9.152;2024-02-26T03:36:32;1.00;;;1.00;;
65971;SDS011;52726;48.852;9.152;2024-02-26T03:38:58;1.33;;;1.23;;
65971;SDS011;52726;48.852;9.152;2024-02-26T03:41:23;1.27;;;1.00;;
65971;SDS011;52726;48.852;9.152;2024-02-26T03:43:49;0.93;;;0.80;;
65971;SDS011;52726;48.852;9.152;2024-02-26T03:46:14;0.80;;;0.80;;
65971;SDS011;52726;48.852;9.152;2024-02-26T03:48:43;3.33;;;1.50;;
65971;SDS011;52726;48.852;9.152;2024-02-26T03:51:08;1.20;;;1.15;;
65971;SDS011;52726;48.852;9.152;2024-02-26T03:53:35;1.73;;;1.00;;
65971;SDS011;52726;48.852;9.152;2024-02-26T03:56:04;1.00;;;1.00;;
65971;SDS011;52726;48.852;9.152;2024-02-26T03:58:30;1.58;;;1.35;;
65971;SDS011;52726;48.852;9.152;2024-02-26T04:00:55;1.98;;;0.85;;
65971;SDS011;52726;48.852;9.152;2024-02-26T04:03:21;2.38;;;1.17;;
65971;SDS011;52726;48.852;9.152;2024-02-26T04:05:46;0.98;;;0.98;;
65971;SDS011;52726;48.852;9.152;2024-02-26T04:08:12;5.95;;;1.10;;
65971;SDS011;52726;48.852;9.152;2024-02-26T04:10:37;1.60;;;1.00;;
65971;SDS011;52726;48.852;9.152;2024-02-26T04:13:07;3.13;;;1.27;;
65971;SDS011;52726;48.852;9.152;2024-02-26T04:15:32;3.10;;;1.30;;
65971;SDS011;52726;48.852;9.152;2024-02-26T04:17:58;2.25;;;1.35;;
65971;SDS011;52726;48.852;9.152;2024-02-26T04:20:23;3.30;;;1.35;;
65971;SDS011;52726;48.852;9.152;2024-02-26T04:22:48;0.90;;;0.90;;
65971;SDS011;52726;48.852;9.152;2024-02-26T04:25:14;1.45;;;1.10;;
65971;SDS011;52726;48.852;9.152;2024-02-26T04:27:40;1.15;;;1.00;;
65971;SDS011;52726;48.852;9.152;2024-02-26T04:30:06;0.90;;;0.90;;
65971;SDS011;52726;48.852;9.152;2024-02-26T04:32:31;2.30;;;1.17;;
65971;SDS011;52726;48.852;9.152;2024-02-26T04:34:57;1.10;;;1.02;;
65971;SDS011;52726;48.852;9.152;2024-02-26T04:37:22;1.02;;;1.00;;
65971;SDS011;52726;48.852;9.152;2024-02-26T04:39:49;1.35;;;1.17;;
65971;SDS011;52726;48.852;9.152;2024-02-26T04:42:14;1.27;;;1.17;;
65971;SDS011;52726;48.852;9.152;2024-02-26T04:44:39;2.75;;;1.40;;
65971;SDS011;52726;48.852;9.152;2024-02-26T04:47:05;1.40;;;1.30;;
65971;SDS011;52726;48.852;9.152;2024-02-26T04:49:30;1.63;;;1.15;;
65971;SDS011;52726;48.852;9.152;2024-02-26T04:51:55;2.85;;;1.58;;
65971;SDS011;52726;48.852;9.152;2024-02-26T04:54:21;1.63;;;1.23;;
65971;SDS011;52726;48.852;9.152;2024-02-26T04:56:46;3.95;;;1.08;;
65971;SDS011;52726;48.852;9.152;2024-02-26T04:59:12;1.88;;;1.45;;
65971;SDS011;52726;48.852;9.152;2024-02-26T05:01:37;1.40;;;1.10;;
65971;SDS011;52726;48.852;9.152;2024-02-26T05:04:03;1.52;;;1.27;;
65971;SDS011;52726;48.852;9.152;2024-02-26T05:06:28;1.15;;;0.98;;
65971;SDS011;52726;48.852;9.152;2024-02-26T05:08:54;1.25;;;1.08;;
65971;SDS011;52726;48.852;9.152;2024-02-26T05:11:19;2.38;;;1.30;;
65971;SDS011;52726;48.852;9.152;2024-02-26T05:13:45;1.40;;;1.17;;
65971;SDS011;52726;48.852;9.152;2024-02-26T05:16:10;1.38;;;1.27;;
65971;SDS011;52726;48.852;9.152;2024-02-26T05:18:36;1.45;;;1.35;;
65971;SDS011;52726;48.852;9.152;2024-02-26T05:21:01;0.93;;;0.90;;
65971;SDS011;52726;48.852;9.152;2024-02-26T05:23:28;3.30;;;1.20;;
65971;SDS011;52726;48.852;9.152;2024-02-26T05:25:53;1.50;;;0.70;;
65971;SDS011;52726;48.852;9.152;2024-02-26T05:28:19;1.70;;;1.35;;
65971;SDS011;52726;48.852;9.152;2024-02-26T05:30:45;1.02;;;0.95;;
65971;SDS011;52726;48.852;9.152;2024-02-26T05:33:11;2.17;;;1.20;;
65971;SDS011;52726;48.852;9.152;2024-02-26T05:35:37;1.10;;;1.00;;
65971;SDS011;52726;48.852;9.152;2024-02-26T05:38:02;4.43;;;1.40;;
65971;SDS011;52726;48.852;9.152;2024-02-26T05:40:28;0.90;;;0.90;;
65971;SDS011;52726;48.852;9.152;2024-02-26T05:42:55;1.75;;;1.35;;
65971;SDS011;52726;48.852;9.152;2024-02-26T05:45:20;1.60;;;1.50;;
65971;SDS011;52726;48.852;9.152;2024-02-26T05:47:46;1.67;;;1.23;;
65971;SDS011;52726;48.852;9.152;2024-02-26T05:50:12;0.80;;;0.80;;
65971;SDS011;52726;48.852;9.152;2024-02-26T05:52:38;1.20;;;1.10;;
65971;SDS011;52726;48.852;9.152;2024-02-26T05:55:04;1.60;;;1.40;;
65971;SDS011;52726;48.852;9.152;2024-02-26T05:57:30;1.30;;;1.20;;
65971;SDS011;52726;48.852;9.152;2024-02-26T05:59:59;4.85;;;1.48;;
65971;SDS011;52726;48.852;9.152;2024-02-26T06:02:32;1.75;;;1.50;;
65971;SDS011;52726;48.852;9.152;2024-02-26T06:04:57;1.38;;;1.27;;
65971;SDS011;52726;48.852;9.152;2024-02-26T06:07:23;1.20;;;1.00;;
65971;SDS011;52726;48.852;9.152;2024-02-26T06:09:49;1.30;;;1.20;;
65971;SDS011;52726;48.852;9.152;2024-02-26T06:12:14;1.48;;;1.30;;
65971;SDS011;52726;48.852;9.152;2024-02-26T06:14:40;2.83;;;1.63;;
65971;SDS011;52726;48.852;9.152;2024-02-26T06:17:06;1.60;;;1.25;;
65971;SDS011;52726;48.852;9.152;2024-02-26T06:19:32;1.02;;;0.93;;
65971;SDS011;52726;48.852;9.152;2024-02-26T06:21:57;1.30;;;1.20;;
65971;SDS011;52726;48.852;9.152;2024-02-26T06:24:22;2.30;;;1.20;;
65971;SDS011;52726;48.852;9.152;2024-02-26T06:26:48;1.15;;;1.05;;
65971;SDS011;52726;48.852;9.152;2024-02-26T06:29:14;1.48;;;0.80;;
65971;SDS011;52726;48.852;9.152;2024-02-26T06:31:39;0.80;;;0.80;;
65971;SDS011;52726;48.852;9.152;2024-02-26T06:34:05;4.93;;;1.20;;
65971;SDS011;52726;48.852;9.152;2024-02-26T06:36:30;1.80;;;1.08;;
65971;SDS011;52726;48.852;9.152;2024-02-26T06:38:57;2.35;;;1.23;;
65971;SDS011;52726;48.852;9.152;2024-02-26T06:41:22;1.70;;;1.02;;
65971;SDS011;52726;48.852;9.152;2024-02-26T06:43:52;1.23;;;1.13;;
65971;SDS011;52726;48.852;9.152;2024-02-26T06:46:20;1.65;;;1.55;;
65971;SDS011;52726;48.852;9.152;2024-02-26T06:48:47;1.38;;;1.27;;
65971;SDS011;52726;48.852;9.152;2024-02-26T06:51:13;1.73;;;1.45;;
65971;SDS011;52726;48.852;9.152;2024-02-26T06:53:39;2.63;;;1.50;;
65971;SDS011;52726;48.852;9.152;2024-02-26T06:56:04;2.25;;;1.17;;
65971;SDS011;52726;48.852;9.152;2024-02-26T06:58:32;2.33;;;2.10;;
65971;SDS011;52726;48.852;9.152;2024-02-26T07:00:58;0.98;;;0.98;;
65971;SDS011;52726;48.852;9.152;2024-02-26T07:03:23;6.68;;;1.55;;
65971;SDS011;52726;48.852;9.152;2024-02-26T07:05:50;1.85;;;1.27;;
65971;SDS011;52726;48.852;9.152;2024-02-26T07:08:16;1.88;;;1.30;;
65971;SDS011;52726;48.852;9.152;2024-02-26T07:10:42;1.92;;;1.45;;
65971;SDS011;52726;48.852;9.152;2024-02-26T07:13:08;1.02;;;1.02;;
65971;SDS011;52726;48.852;9.152;2024-02-26T07:15:33;1.27;;;1.13;;
65971;SDS011;52726;48.852;9.152;2024-02-26T07:17:59;1.27;;;1.13;;
65971;SDS011;52726;48.852;9.152;2024-02-26T07:20:28;1.30;;;1.17;;
65971;SDS011;52726;48.852;9.152;2024-02-26T07:22:56;1.85;;;1.58;;
65971;SDS011;52726;48.852;9.152;2024-02-26T07:25:22;3.22;;;1.60;;
65971;SDS011;52726;48.852;9.152;2024-02-26T07:27:48;1.98;;;1.45;;
65971;SDS011;52726;48.852;9.152;2024-02-26T07:30:13;2.70;;;1.60;;
65971;SDS011;52726;48.852;9.152;2024-02-26T07:32:39;2.92;;;1.63;;
65971;SDS011;52726;48.852;9.152;2024-02-26T07:35:05;2.10;;;1.85;;
65971;SDS011;52726;48.852;9.152;2024-02-26T07:37:30;2.75;;;1.90;;
65971;SDS011;52726;48.852;9.152;2024-02-26T07:39:56;1.60;;;1.50;;
65971;SDS011;52726;48.852;9.152;2024-02-26T07:42:21;2.65;;;1.30;;
65971;SDS011;52726;48.852;9.152;2024-02-26T07:44:47;4.47;;;1.90;;
65971;SDS011;52726;48.852;9.152;2024-02-26T07:47:12;3.60;;;2.10;;
65971;SDS011;52726;48.852;9.152;2024-02-26T07:49:37;2.70;;;1.58;;
65971;SDS011;52726;48.852;9.152;2024-02-26T07:52:04;2.00;;;1.55;;
65971;SDS011;52726;48.852;9.152;2024-02-26T07:54:30;3.60;;;1.48;;
65971;SDS011;52726;48.852;9.152;2024-02-26T07:56:55;2.45;;;1.63;;
65971;SDS011;52726;48.852;9.152;2024-02-26T07:59:20;5.13;;;1.92;;
65971;SDS011;52726;48.852;9.152;2024-02-26T08:01:49;2.00;;;1.80;;
65971;SDS011;52726;48.852;9.152;2024-02-26T08:04:17;4.10;;;1.98;;
65971;SDS011;52726;48.852;9.152;2024-02-26T08:06:42;3.10;;;2.22;;
65971;SDS011;52726;48.852;9.152;2024-02-26T08:09:08;3.58;;;1.80;;
65971;SDS011;52726;48.852;9.152;2024-02-26T08:11:33;3.75;;;1.70;;
65971;SDS011;52726;48.852;9.152;2024-02-26T08:13:58;4.57;;;1.92;;
65971;SDS011;52726;48.852;9.152;2024-02-26T08:16:24;4.13;;;1.90;;
65971;SDS011;52726;48.852;9.152;2024-02-26T08:18:49;3.65;;;1.85;;
65971;SDS011;52726;48.852;9.152;2024-02-26T08:21:15;4.90;;;1.98;;
65971;SDS011;52726;48.852;9.152;2024-02-26T08:23:41;5.30;;;1.90;;
65971;SDS011;52726;48.852;9.152;2024-02-26T08:26:08;2.40;;;1.60;;
65971;SDS011;52726;48.852;9.152;2024-02-26T08:28:36;3.25;;;1.90;;
65971;SDS011;52726;48.852;9.152;2024-02-26T08:31:02;4.28;;;2.10;;
65971;SDS011;52726;48.852;9.152;2024-02-26T08:33:27;2.97;;;2.03;;
65971;SDS011;52726;48.852;9.152;2024-02-26T08:35:53;5.07;;;2.20;;
65971;SDS011;52726;48.852;9.152;2024-02-26T08:38:19;2.50;;;2.00;;
65971;SDS011;52726;48.852;9.152;2024-02-26T08:40:44;4.43;;;2.08;;
65971;SDS011;52726;48.852;9.152;2024-02-26T08:43:09;3.05;;;1.80;;
65971;SDS011;52726;48.852;9.152;2024-02-26T08:45:35;6.57;;;2.05;;
65971;SDS011;52726;48.852;9.152;2024-02-26T08:48:00;2.42;;;1.77;;
65971;SDS011;52726;48.852;9.152;2024-02-26T08:50:25;2.78;;;1.95;;
65971;SDS011;52726;48.852;9.152;2024-02-26T08:52:51;3.05;;;1.90;;
65971;SDS011;52726;48.852;9.152;2024-02-26T08:55:18;3.88;;;2.00;;
65971;SDS011;52726;48.852;9.152;2024-02-26T08:57:43;2.03;;;1.60;;
65971;SDS011;52726;48.852;9.152;2024-02-26T09:00:09;1.80;;;1.52;;
65971;SDS011;52726;48.852;9.152;2024-02-26T09:02:35;1.85;;;1.48;;
65971;SDS011;52726;48.852;9.152;2024-02-26T09:05:03;3.65;;;1.63;;
65971;SDS011;52726;48.852;9.152;2024-02-26T09:07:30;2.35;;;1.42;;
65971;SDS011;52726;48.852;9.152;2024-02-26T09:09:56;3.10;;;1.85;;
65971;SDS011;52726;48.852;9.152;2024-02-26T09:12:21;2.55;;;1.33;;
65971;SDS011;52726;48.852;9.152;2024-02-26T09:14:47;2.38;;;1.88;;
65971;SDS011;52726;48.852;9.152;2024-02-26T09:17:12;1.88;;;1.60;;
65971;SDS011;52726;48.852;9.152;2024-02-26T09:19:37;1.60;;;1.50;;
65971;SDS011;52726;48.852;9.152;2024-02-26T09:22:03;5.03;;;1.80;;
65971;SDS011;52726;48.852;9.152;2024-02-26T09:24:28;1.60;;;1.48;;
65971;SDS011;52726;48.852;9.152;2024-02-26T09:26:53;1.90;;;1.52;;
65971;SDS011;52726;48.852;9.152;2024-02-26T09:29:19;2.25;;;1.45;;
65971;SDS011;52726;48.852;9.152;2024-02-26T09:31:44;2.75;;;1.85;;
65971;SDS011;52726;48.852;9.152;2024-02-26T09:34:12;1.65;;;1.35;;
65971;SDS011;52726;48.852;9.152;2024-02-26T09:36:38;1.52;;;1.42;;
65971;SDS011;52726;48.852;9.152;2024-02-26T09:39:03;2.05;;;1.67;;
65971;SDS011;52726;48.852;9.152;2024-02-26T09:41:28;1.45;;;1.35;;
65971;SDS011;52726;48.852;9.152;2024-02-26T09:43:55;1.63;;;1.45;;
65971;SDS011;52726;48.852;9.152;2024-02-26T09:46:22;1.05;;;1.00;;
65971;SDS011;52726;48.852;9.152;2024-02-26T09:48:48;3.28;;;1.70;;
65971;SDS011;52726;48.852;9.152;2024-02-26T09:51:14;2.28;;;1.50;;
65971;SDS011;52726;48.852;9.152;2024-02-26T09:53:42;1.17;;;1.13;;
65971;SDS011;52726;48.852;9.152;2024-02-26T09:56:11;2.65;;;1.30;;
65971;SDS011;52726;48.852;9.152;2024-02-26T09:58:36;7.05;;;1.40;;
65971;SDS011;52726;48.852;9.152;2024-02-26T10:01:03;2.28;;;1.20;;
65971;SDS011;52726;48.852;9.152;2024-02-26T10:06:05;1.08;;;1.00;;
65971;SDS011;52726;48.852;9.152;2024-02-26T10:08:32;1.08;;;1.00;;
65971;SDS011;52726;48.852;9.152;2024-02-26T10:10:58;1.55;;;1.40;;
65971;SDS011;52726;48.852;9.152;2024-02-26T10:13:24;1.45;;;1.35;;
65971;SDS011;52726;48.852;9.152;2024-02-26T10:15:50;1.20;;;1.20;;
65971;SDS011;52726;48.852;9.152;2024-02-26T10:18:15;1.67;;;1.20;;
65971;SDS011;52726;48.852;9.152;2024-02-26T10:20:41;1.90;;;1.67;;
65971;SDS011;52726;48.852;9.152;2024-02-26T10:23:06;1.30;;;1.20;;
65971;SDS011;52726;48.852;9.152;2024-02-26T10:25:31;1.63;;;1.20;;
65971;SDS011;52726;48.852;9.152;2024-02-26T10:28:00;2.05;;;1.40;;
65971;SDS011;52726;48.852;9.152;2024-02-26T10:30:29;1.67;;;1.30;;
65971;SDS011;52726;48.852;9.152;2024-02-26T10:32:55;1.75;;;1.40;;
65971;SDS011;52726;48.852;9.152;2024-02-26T10:35:21;2.00;;;1.27;;
65971;SDS011;52726;48.852;9.152;2024-02-26T10:37:47;1.50;;;1.25;;
65971;SDS011;52726;48.852;9.152;2024-02-26T10:40:13;4.88;;;1.88;;
65971;SDS011;52726;48.852;9.152;2024-02-26T10:42:40;1.38;;;1.23;;
65971;SDS011;52726;48.852;9.152;2024-02-26T10:45:06;1.40;;;1.30;;
65971;SDS011;52726;48.852;9.152;2024-02-26T10:47:34;1.50;;;1.40;;
65971;SDS011;52726;48.852;9.152;2024-02-26T10:50:03;2.30;;;1.35;;
65971;SDS011;52726;48.852;9.152;2024-02-26T10:52:33;1.77;;;1.30;;
65971;SDS011;52726;48.852;9.152;2024-02-26T10:55:01;3.55;;;1.58;;
65971;SDS011;52726;48.852;9.152;2024-02-26T10:57:29;1.33;;;1.20;;
65971;SDS011;52726;48.852;9.152;2024-02-26T10:59:58;1.60;;;1.50;;
65971;SDS011;52726;48.852;9.152;2024-02-26T11:02:25;1.40;;;1.27;;
65971;SDS011;52726;48.852;9.152;2024-02-26T11:04:51;2.10;;;1.25;;
65971;SDS011;52726;48.852;9.152;2024-02-26T11:07:17;3.92;;;1.50;;
65971;SDS011;52726;48.852;9.152;2024-02-26T11:09:43;1.83;;;1.30;;
65971;SDS011;52726;48.852;9.152;2024-02-26T11:12:12;1.63;;;1.13;;
65971;SDS011;52726;48.852;9.152;2024-02-26T11:14:42;1.25;;;1.10;;
65971;SDS011;52726;48.852;9.152;2024-02-26T11:17:10;1.33;;;1.00;;
65971;SDS011;52726;48.852;9.152;2024-02-26T11:19:37;0.93;;;0.93;;
65971;SDS011;52726;48.852;9.152;2024-02-26T11:22:03;0.98;;;0.88;;
65971;SDS011;52726;48.852;9.152;2024-02-26T11:24:29;1.88;;;0.50;;
65971;SDS011;52726;48.852;9.152;2024-02-26T11:27:00;0.75;;;0.75;;
65971;SDS011;52726;48.852;9.152;2024-02-26T11:29:29;1.20;;;0.90;;
65971;SDS011;52726;48.852;9.152;2024-02-26T11:32:00;1.00;;;0.70;;
65971;SDS011;52726;48.852;9.152;2024-02-26T11:34:25;1.95;;;1.23;;
65971;SDS011;52726;48.852;9.152;2024-02-26T11:36:51;0.73;;;0.73;;
65971;SDS011;52726;48.852;9.152;2024-02-26T11:39:17;0.85;;;0.85;;
65971;SDS011;52726;48.852;9.152;2024-02-26T11:41:43;0.70;;;0.70;;
65971;SDS011;52726;48.852;9.152;2024-02-26T11:44:08;0.90;;;0.80;;
65971;SDS011;52726;48.852;9.152;2024-02-26T11:46:40;1.33;;;1.00;;
65971;SDS011;52726;48.852;9.152;2024-02-26T11:51:56;0.88;;;0.88;;
65971;SDS011;52726;48.852;9.152;2024-02-26T11:59:54;0.75;;;0.75;;
65971;SDS011;52726;48.852;9.152;2024-02-26T12:05:25;1.20;;;0.70;;
65971;SDS011;52726;48.852;9.152;2024-02-26T12:08:02;1.10;;;0.82;;
65971;SDS011;52726;48.852;9.152;2024-02-26T12:13:08;0.77;;;0.77;;
65971;SDS011;52726;48.852;9.152;2024-02-26T12:15:38;0.70;;;0.70;;
65971;SDS011;52726;48.852;9.152;2024-02-26T12:18:05;0.88;;;0.85;;
65971;SDS011;52726;48.852;9.152;2024-02-26T12:20:33;0.93;;;0.70;;
65971;SDS011;52726;48.852;9.152;2024-02-26T12:22:59;0.70;;;0.70;;
65971;SDS011;52726;48.852;9.152;2024-02-26T12:25:25;0.70;;;0.70;;
65971;SDS011;52726;48.852;9.152;2024-02-26T12:27:53;1.63;;;1.02;;
65971;SDS011;52726;48.852;9.152;2024-02-26T12:30:19;0.65;;;0.65;;
65971;SDS011;52726;48.852;9.152;2024-02-26T12:32:44;0.98;;;0.98;;
65971;SDS011;52726;48.852;9.152;2024-02-26T12:35:11;1.85;;;0.90;;
65971;SDS011;52726;48.852;9.152;2024-02-26T12:37:37;1.00;;;0.80;;
65971;SDS011;52726;48.852;9.152;2024-02-26T12:40:05;0.70;;;0.70;;
65971;SDS011;52726;48.852;9.152;2024-02-26T12:42:33;0.68;;;0.63;;
65971;SDS011;52726;48.852;9.152;2024-02-26T12:45:04;1.58;;;0.80;;
65971;SDS011;52726;48.852;9.152;2024-02-26T12:47:38;0.93;;;0.93;;
65971;SDS011;52726;48.852;9.152;2024-02-26T12:50:04;1.08;;;0.98;;
65971;SDS011;52726;48.852;9.152;2024-02-26T12:52:31;0.60;;;0.60;;
65971;SDS011;52726;48.852;9.152;2024-02-26T12:54:58;0.75;;;0.75;;
65971;SDS011;52726;48.852;9.152;2024-02-26T12:57:23;1.23;;;0.93;;
65971;SDS011;52726;48.852;9.152;2024-02-26T12:59:49;1.95;;;1.20;;
65971;SDS011;52726;48.852;9.152;2024-02-26T13:02:15;0.80;;;0.77;;
65971;SDS011;52726;48.852;9.152;2024-02-26T13:04:40;1.08;;;0.85;;
65971;SDS011;52726;48.852;9.152;2024-02-26T13:07:06;1.90;;;1.02;;
65971;SDS011;52726;48.852;9.152;2024-02-26T13:09:32;1.50;;;0.88;;
65971;SDS011;52726;48.852;9.152;2024-02-26T13:11:59;1.20;;;0.93;;
65971;SDS011;52726;48.852;9.152;2024-02-26T13:14:25;1.42;;;0.90;;
65971;SDS011;52726;48.852;9.152;2024-02-26T13:16:57;1.58;;;0.93;;
65971;SDS011;52726;48.852;9.152;2024-02-26T13:19:23;1.30;;;1.20;;
65971;SDS011;52726;48.852;9.152;2024-02-26T13:21:49;1.10;;;0.90;;
65971;SDS011;52726;48.852;9.152;2024-02-26T13:24:14;1.95;;;1.45;;
65971;SDS011;52726;48.852;9.152;2024-02-26T13:26:40;1.10;;;1.00;;
65971;SDS011;52726;48.852;9.152;2024-02-26T13:29:05;0.90;;;0.90;;
65971;SDS011;52726;48.852;9.152;2024-02-26T13:31:31;0.80;;;0.77;;
65971;SDS011;52726;48.852;9.152;2024-02-26T13:33:56;1.70;;;1.10;;
65971;SDS011;52726;48.852;9.152;2024-02-26T13:36:22;3.63;;;0.80;;
65971;SDS011;52726;48.852;9.152;2024-02-26T13:38:54;1.30;;;0.98;;
65971;SDS011;52726;48.852;9.152;2024-02-26T13:41:21;1.00;;;1.00;;
65971;SDS011;52726;48.852;9.152;2024-02-26T13:46:15;0.88;;;0.60;;
65971;SDS011;52726;48.852;9.152;2024-02-26T13:48:42;1.13;;;1.02;;
65971;SDS011;52726;48.852;9.152;2024-02-26T13:51:07;1.20;;;0.75;;
65971;SDS011;52726;48.852;9.152;2024-02-26T13:53:32;1.33;;;0.93;;
65971;SDS011;52726;48.852;9.152;2024-02-26T13:55:58;1.00;;;0.80;;
65971;SDS011;52726;48.852;9.152;2024-02-26T13:58:26;0.73;;;0.73;;
65971;SDS011;52726;48.852;9.152;2024-02-26T14:00:54;0.75;;;0.68;;
65971;SDS011;52726;48.852;9.152;2024-02-26T14:03:20;0.73;;;0.70;;
65971;SDS011;52726;48.852;9.152;2024-02-26T14:05:45;0.63;;;0.63;;
65971;SDS011;52726;48.852;9.152;2024-02-26T14:08:11;0.95;;;0.90;;
65971;SDS011;52726;48.852;9.152;2024-02-26T14:10:36;1.17;;;0.60;;
65971;SDS011;52726;48.852;9.152;2024-02-26T14:13:02;0.50;;;0.50;;
65971;SDS011;52726;48.852;9.152;2024-02-26T14:15:28;0.50;;;0.50;;
65971;SDS011;52726;48.852;9.152;2024-02-26T14:17:53;0.93;;;0.75;;
65971;SDS011;52726;48.852;9.152;2024-02-26T14:20:21;0.73;;;0.73;;
65971;SDS011;52726;48.852;9.152;2024-02-26T14:22:48;0.60;;;0.60;;
65971;SDS011;52726;48.852;9.152;2024-02-26T14:25:13;1.17;;;0.63;;
65971;SDS011;52726;48.852;9.152;2024-02-26T14:27:39;0.43;;;0.38;;
65971;SDS011;52726;48.852;9.152;2024-02-26T14:30:04;0.35;;;0.35;;
65971;SDS011;52726;48.852;9.152;2024-02-26T14:32:30;0.20;;;0.20;;
65971;SDS011;52726;48.852;9.152;2024-02-26T14:34:59;0.38;;;0.38;;
65971;SDS011;52726;48.852;9.152;2024-02-26T14:37:25;0.95;;;0.50;;
65971;SDS011;52726;48.852;9.152;2024-02-26T14:39:50;0.38;;;0.30;;
65971;SDS011;52726;48.852;9.152;2024-02-26T14:42:17;0.43;;;0.43;;
65971;SDS011;52726;48.852;9.152;2024-02-26T14:44:43;0.20;;;0.20;;
65971;SDS011;52726;48.852;9.152;2024-02-26T14:47:08;0.50;;;0.50;;
65971;SDS011;52726;48.852;9.152;2024-02-26T14:49:34;2.60;;;0.50;;
65971;SDS011;52726;48.852;9.152;2024-02-26T14:51:59;0.50;;;0.50;;
65971;SDS011;52726;48.852;9.152;2024-02-26T14:54:24;0.55;;;0.55;;
65971;SDS011;52726;48.852;9.152;2024-02-26T14:56:50;0.98;;;0.50;;
65971;SDS011;52726;48.852;9.152;2024-02-26T14:59:15;1.15;;;0.47;;